Time;durP1;ratioP1;P1;durP2;ratioP2;P2;SDS_P1;SDS_P2;PMS_P1;PMS_P2;Temp;Humidity;BMP_temperature;BMP_pressure;BME280_temperature;BME280_humidity;BME280_pressure;Samples;Min_cycle;Max_cycle;Signal;HPM_P1;HPM_P2
2023/07/16 00:00:26;;;;;;;318.87;308.40;;;17.70;99.90;;;;;;5094004;28;20565;-68
2023/07/16 00:02:53;;;;;;;340.57;328.87;;;17.70;99.90;;;;;;5093276;28;20456;-69
2023/07/16 00:05:20;;;;;;;350.03;337.57;;;17.70;99.90;;;;;;5094170;28;20937;-69
2023/07/16 00:07:46;;;;;;;337.47;325.73;;;17.70;99.90;;;;;;5093540;28;20453;-69
2023/07/16 00:10:13;;;;;;;335.87;323.83;;;17.70;99.90;;;;;;5094257;28;20511;-68
2023/07/16 00:12:41;;;;;;;316.53;305.10;;;17.60;99.90;;;;;;5093596;28;20450;-68
2023/07/16 00:15:10;;;;;;;339.80;327.57;;;17.70;99.90;;;;;;5093988;28;20532;-68
2023/07/16 00:17:37;;;;;;;324.33;312.57;;;17.70;99.90;;;;;;5093850;28;20454;-68
2023/07/16 00:20:05;;;;;;;321.50;309.67;;;17.60;99.90;;;;;;5093690;28;20450;-68
2023/07/16 00:22:32;;;;;;;327.93;316.10;;;17.60;99.90;;;;;;5093295;28;20453;-69
2023/07/16 00:24:59;;;;;;;330.10;317.47;;;17.60;99.90;;;;;;5093798;28;20819;-68
2023/07/16 00:27:26;;;;;;;358.80;345.57;;;17.50;99.90;;;;;;5093658;28;20461;-69
2023/07/16 00:29:53;;;;;;;374.83;360.80;;;17.50;99.90;;;;;;5093643;28;20456;-68
2023/07/16 00:32:21;;;;;;;358.33;344.90;;;17.40;99.90;;;;;;5093147;28;20446;-68
2023/07/16 00:34:48;;;;;;;421.83;405.23;;;17.30;99.90;;;;;;5093550;28;20813;-68
2023/07/16 00:37:14;;;;;;;468.00;449.10;;;17.20;99.90;;;;;;5093859;28;20450;-68
2023/07/16 00:39:41;;;;;;;461.47;442.50;;;17.20;99.90;;;;;;5093904;28;20564;-68
2023/07/16 00:42:08;;;;;;;484.13;464.10;;;17.20;99.90;;;;;;5093429;28;20478;-68
2023/07/16 00:44:35;;;;;;;472.97;453.37;;;17.20;99.90;;;;;;5093250;28;20450;-68
2023/07/16 00:47:02;;;;;;;493.83;473.13;;;17.10;99.90;;;;;;5093428;28;20552;-68
2023/07/16 00:49:31;;;;;;;525.70;502.93;;;17.00;99.90;;;;;;5093742;28;20482;-68
2023/07/16 00:52:00;;;;;;;545.17;520.60;;;17.00;99.90;;;;;;5093449;28;20450;-69
2023/07/16 00:54:27;;;;;;;560.73;535.33;;;16.80;99.90;;;;;;5093043;28;20457;-69
2023/07/16 00:56:54;;;;;;;588.47;560.53;;;16.80;99.90;;;;;;5093655;28;20454;-69
2023/07/16 00:59:21;;;;;;;593.90;565.80;;;16.70;99.90;;;;;;5093341;28;20454;-69
2023/07/16 01:01:48;;;;;;;579.57;552.23;;;16.70;99.90;;;;;;5093952;28;20474;-68
2023/07/16 01:04:15;;;;;;;636.20;604.30;;;16.60;99.90;;;;;;5093081;28;20449;-68
2023/07/16 01:06:49;;;;;;;657.43;624.00;;;16.60;99.90;;;;;;5093651;28;20541;-69
2023/07/16 01:09:17;;;;;;;654.47;621.07;;;16.50;99.90;;;;;;5093299;28;20438;-68
2023/07/16 01:11:45;;;;;;;677.57;642.90;;;16.50;99.90;;;;;;5093443;28;20446;-68
2023/07/16 01:14:13;;;;;;;668.43;633.83;;;16.40;99.90;;;;;;5092828;28;20449;-68
2023/07/16 01:16:41;;;;;;;660.17;625.97;;;16.40;99.90;;;;;;5093572;28;20457;-68
2023/07/16 01:19:08;;;;;;;700.27;662.27;;;16.30;99.90;;;;;;5095031;28;20972;-69
2023/07/16 01:21:41;;;;;;;724.83;683.93;;;16.30;99.90;;;;;;5097286;28;20556;-69
2023/07/16 01:24:34;;;;;;;763.30;719.77;;;16.30;99.90;;;;;;5096671;28;20453;-68
2023/07/16 01:27:18;;;;;;;776.23;731.03;;;16.20;99.90;;;;;;5097112;28;20465;-68
2023/07/16 01:29:50;;;;;;;729.03;688.97;;;16.30;99.90;;;;;;5097259;28;20444;-69
2023/07/16 01:32:18;;;;;;;719.33;680.10;;;16.40;99.90;;;;;;5096587;28;20925;-69
2023/07/16 01:34:46;;;;;;;693.10;656.60;;;16.40;99.90;;;;;;5096816;28;20929;-68
2023/07/16 01:37:13;;;;;;;697.70;660.70;;;16.40;99.90;;;;;;5097077;28;20449;-68
2023/07/16 01:39:40;;;;;;;662.07;627.07;;;16.40;99.90;;;;;;5096768;28;20456;-69
2023/07/16 01:42:07;;;;;;;653.13;619.60;;;16.50;99.90;;;;;;5096660;28;20473;-68
2023/07/16 01:44:34;;;;;;;630.57;598.97;;;16.50;99.90;;;;;;5096410;28;20926;-69
2023/07/16 01:47:10;;;;;;;601.33;571.93;;;16.50;99.90;;;;;;5096677;28;20818;-69
2023/07/16 01:49:37;;;;;;;562.97;536.57;;;16.50;99.90;;;;;;5096933;28;20443;-68
2023/07/16 01:52:05;;;;;;;549.47;524.47;;;16.50;99.90;;;;;;5096564;28;20452;-69
2023/07/16 01:54:32;;;;;;;526.77;503.13;;;16.50;99.90;;;;;;5096429;28;20457;-69
2023/07/16 01:56:59;;;;;;;519.37;496.33;;;16.50;99.90;;;;;;5096433;28;20468;-68
2023/07/16 01:59:26;;;;;;;508.00;484.80;;;16.50;99.90;;;;;;5096723;28;20449;-68
2023/07/16 02:01:53;;;;;;;458.13;438.47;;;16.50;99.90;;;;;;5096356;28;20478;-69
2023/07/16 02:04:21;;;;;;;444.70;425.93;;;16.50;99.90;;;;;;5095740;28;20933;-68
2023/07/16 02:06:48;;;;;;;425.27;408.17;;;16.50;99.90;;;;;;5096636;28;20489;-68
2023/07/16 02:09:15;;;;;;;401.10;385.20;;;16.50;99.90;;;;;;5096501;28;20575;-68
2023/07/16 02:11:42;;;;;;;293.10;281.80;;;16.60;99.90;;;;;;5096023;28;20449;-68
2023/07/16 02:14:09;;;;;;;289.10;278.23;;;16.60;99.90;;;;;;5095517;28;20445;-69
2023/07/16 02:16:36;;;;;;;252.73;244.07;;;16.60;99.90;;;;;;5096371;28;20449;-69
2023/07/16 02:19:03;;;;;;;220.33;212.83;;;16.60;99.90;;;;;;5096348;28;20453;-69
2023/07/16 02:21:31;;;;;;;165.47;159.43;;;16.70;99.90;;;;;;5096184;28;20480;-68
2023/07/16 02:23:58;;;;;;;159.63;154.03;;;16.70;99.90;;;;;;5095626;28;20803;-68
2023/07/16 02:26:25;;;;;;;123.73;119.20;;;16.70;99.90;;;;;;5095865;28;20450;-69
2023/07/16 02:28:52;;;;;;;92.13;88.57;;;16.70;99.90;;;;;;5096027;28;20519;-68
2023/07/16 02:31:19;;;;;;;63.80;61.10;;;16.70;99.90;;;;;;5095570;28;20934;-69
2023/07/16 02:33:45;;;;;;;40.30;38.13;;;16.70;99.90;;;;;;5095264;28;20449;-68
2023/07/16 02:36:12;;;;;;;41.00;39.10;;;16.70;99.90;;;;;;5095989;28;20450;-68
2023/07/16 02:38:40;;;;;;;31.50;29.90;;;16.70;99.90;;;;;;5095945;28;20910;-69
2023/07/16 02:41:07;;;;;;;19.97;18.77;;;16.60;99.90;;;;;;5095820;28;20481;-68
2023/07/16 02:43:34;;;;;;;14.43;13.30;;;16.60;99.90;;;;;;5094671;28;20541;-69
2023/07/16 02:46:01;;;;;;;15.00;13.90;;;16.60;99.90;;;;;;5095364;28;20468;-68
2023/07/16 02:48:28;;;;;;;15.40;14.30;;;16.60;99.90;;;;;;5095806;28;20804;-68
2023/07/16 02:50:55;;;;;;;13.03;11.73;;;16.50;99.90;;;;;;5095401;28;20458;-68
2023/07/16 02:53:21;;;;;;;12.77;11.67;;;16.50;99.90;;;;;;5094903;28;20454;-69
2023/07/16 02:55:50;;;;;;;11.00;10.00;;;16.40;99.90;;;;;;5095292;28;20456;-69
2023/07/16 02:58:16;;;;;;;10.73;9.87;;;16.40;99.90;;;;;;5095303;28;20460;-66
2023/07/16 03:00:43;;;;;;;10.93;7.47;;;16.30;99.90;;;;;;5095504;28;20456;-66
2023/07/16 03:03:10;;;;;;;13.70;7.20;;;16.40;99.90;;;;;;5092538;28;20477;-64
2023/07/16 03:05:37;;;;;;;7.30;6.33;;;16.40;99.90;;;;;;5095406;28;20476;-64
2023/07/16 03:08:04;;;;;;;10.57;6.10;;;16.40;99.90;;;;;;5095068;28;20450;-64
2023/07/16 03:10:31;;;;;;;6.23;5.43;;;16.40;99.90;;;;;;5095338;28;20532;-64
2023/07/16 03:12:59;;;;;;;10.07;5.90;;;16.30;99.90;;;;;;5094264;28;20541;-64
2023/07/16 03:15:26;;;;;;;7.73;5.73;;;16.40;99.90;;;;;;5094916;28;20461;-64
2023/07/16 03:17:53;;;;;;;12.63;6.60;;;16.40;99.90;;;;;;5095936;28;20553;-64
2023/07/16 03:20:19;;;;;;;12.50;6.10;;;16.30;99.90;;;;;;5095120;28;20450;-64
2023/07/16 03:22:46;;;;;;;9.23;6.03;;;16.20;99.90;;;;;;5094252;28;20909;-64
2023/07/16 03:25:13;;;;;;;11.70;6.03;;;16.20;99.90;;;;;;5094939;28;20475;-64
2023/07/16 03:27:40;;;;;;;12.53;5.63;;;16.10;99.90;;;;;;5094689;28;20453;-65
2023/07/16 03:30:09;;;;;;;9.97;6.20;;;16.10;99.90;;;;;;5094652;28;20942;-64
2023/07/16 03:32:36;;;;;;;9.63;6.80;;;16.00;99.90;;;;;;5093851;28;20988;-64
2023/07/16 03:35:03;;;;;;;8.83;6.30;;;16.00;99.90;;;;;;5094133;28;20449;-64
2023/07/16 03:37:30;;;;;;;15.83;6.43;;;16.00;99.90;;;;;;5094516;28;20460;-64
2023/07/16 03:39:57;;;;;;;8.67;6.10;;;16.00;99.90;;;;;;5094752;28;20453;-64
2023/07/16 03:42:24;;;;;;;12.13;5.73;;;15.90;99.90;;;;;;5092717;28;20992;-64
2023/07/16 03:44:51;;;;;;;7.60;5.00;;;16.00;99.90;;;;;;5094307;28;20450;-64
2023/07/16 03:47:19;;;;;;;8.87;5.10;;;16.00;99.90;;;;;;5094321;28;20465;-64
2023/07/16 03:49:46;;;;;;;8.00;5.77;;;15.90;99.90;;;;;;5094594;28;20454;-64
2023/07/16 03:52:12;;;;;;;13.80;6.73;;;15.80;99.90;;;;;;5093811;28;20452;-64
2023/07/16 03:54:39;;;;;;;10.30;6.53;;;15.80;99.90;;;;;;5093865;28;20450;-64
2023/07/16 03:57:07;;;;;;;8.00;5.50;;;15.70;99.90;;;;;;5095288;28;20511;-64
2023/07/16 03:59:33;;;;;;;8.23;7.33;;;15.80;99.90;;;;;;5094099;28;20461;-64
2023/07/16 04:02:00;;;;;;;13.47;6.90;;;15.70;99.90;;;;;;5093920;28;20484;-64
2023/07/16 04:04:28;;;;;;;16.00;5.93;;;15.70;99.90;;;;;;5093463;28;20968;-64
2023/07/16 04:06:56;;;;;;;8.37;5.00;;;15.70;99.90;;;;;;5094054;28;20449;-64
2023/07/16 04:09:23;;;;;;;14.00;6.73;;;15.70;99.90;;;;;;5094270;28;20456;-65
2023/07/16 04:11:50;;;;;;;14.97;8.40;;;15.70;99.90;;;;;;5093839;28;20450;-65
2023/07/16 04:14:17;;;;;;;9.00;7.10;;;15.80;99.90;;;;;;5093077;28;20460;-64
2023/07/16 04:16:44;;;;;;;9.50;5.63;;;15.70;99.90;;;;;;5094180;28;20452;-64
2023/07/16 04:19:10;;;;;;;9.47;5.30;;;15.70;99.90;;;;;;5094041;28;20461;-64
2023/07/16 04:21:39;;;;;;;10.07;6.03;;;15.80;99.90;;;;;;5094045;28;20454;-64
2023/07/16 04:24:06;;;;;;;9.90;5.63;;;15.80;99.90;;;;;;5092943;28;20453;-64
2023/07/16 04:26:33;;;;;;;10.03;5.30;;;15.90;99.90;;;;;;5094020;28;20450;-64
2023/07/16 04:29:00;;;;;;;8.90;4.57;;;16.00;99.90;;;;;;5093989;28;20823;-64
2023/07/16 04:31:27;;;;;;;11.60;4.70;;;16.10;99.90;;;;;;5093670;28;20453;-64
2023/07/16 04:33:54;;;;;;;12.97;5.10;;;16.10;99.90;;;;;;5092806;28;20460;-64
2023/07/16 04:36:20;;;;;;;9.37;4.20;;;16.20;99.90;;;;;;5093890;28;20450;-64
2023/07/16 04:38:49;;;;;;;9.20;4.50;;;16.20;99.90;;;;;;5093576;28;20938;-64
2023/07/16 04:41:17;;;;;;;9.70;4.70;;;16.30;99.90;;;;;;5093823;28;20449;-64
2023/07/16 04:43:44;;;;;;;15.20;4.50;;;16.20;99.90;;;;;;5092486;28;20474;-64
2023/07/16 04:46:11;;;;;;;11.77;4.93;;;16.20;99.90;;;;;;5093628;28;20466;-65
2023/07/16 04:48:38;;;;;;;16.67;6.17;;;16.20;99.90;;;;;;5093483;28;20983;-64
2023/07/16 04:51:05;;;;;;;13.47;8.00;;;16.20;99.90;;;;;;5093809;28;20458;-64
2023/07/16 04:53:32;;;;;;;12.60;7.20;;;16.10;99.90;;;;;;5095537;28;20456;-64
2023/07/16 04:56:00;;;;;;;9.50;7.30;;;16.10;99.90;;;;;;5097974;28;20973;-64
2023/07/16 04:58:27;;;;;;;11.73;6.00;;;16.20;99.90;;;;;;5097965;28;20972;-64
2023/07/16 05:00:54;;;;;;;11.33;6.50;;;16.30;99.90;;;;;;5097827;28;20449;-64
2023/07/16 05:03:21;;;;;;;8.50;7.70;;;16.30;99.90;;;;;;5095931;28;20469;-64
2023/07/16 05:05:47;;;;;;;13.50;6.63;;;16.30;99.90;;;;;;5097746;28;20453;-64
2023/07/16 05:08:14;;;;;;;11.60;5.10;;;16.40;99.90;;;;;;5097383;28;20948;-64
2023/07/16 05:10:41;;;;;;;12.60;4.60;;;16.50;99.90;;;;;;5097330;28;20458;-64
2023/07/16 05:13:09;;;;;;;9.40;4.30;;;16.50;99.90;;;;;;5096465;28;20457;-64
2023/07/16 05:15:38;;;;;;;8.53;3.50;;;16.60;99.90;;;;;;5097611;28;20449;-64
2023/07/16 05:18:04;;;;;;;11.67;4.83;;;16.70;97.80;;;;;;5097265;28;20945;-65
2023/07/16 05:20:31;;;;;;;12.50;4.43;;;16.70;97.10;;;;;;5097178;28;20461;-64
2023/07/16 05:22:58;;;;;;;10.53;4.13;;;16.80;97.10;;;;;;5096466;28;20473;-65
2023/07/16 05:25:25;;;;;;;9.93;4.30;;;17.00;93.90;;;;;;5097362;28;20811;-64
2023/07/16 05:27:52;;;;;;;11.77;4.50;;;17.10;93.90;;;;;;5097007;28;20536;-64
2023/07/16 05:30:20;;;;;;;9.73;3.07;;;17.30;93.50;;;;;;5096985;28;20449;-64
2023/07/16 05:32:47;;;;;;;11.00;3.87;;;17.70;90.70;;;;;;5096100;28;20477;-64
2023/07/16 05:35:14;;;;;;;12.83;4.90;;;18.10;90.90;;;;;;5076843;28;20458;-65
2023/07/16 05:37:41;;;;;;;11.37;4.20;;;18.40;84.70;;;;;;5076845;28;20450;-64
2023/07/16 05:40:09;;;;;;;13.83;4.43;;;18.80;84.90;;;;;;5076495;28;20454;-64
2023/07/16 05:42:36;;;;;;;9.10;3.83;;;19.10;80.20;;;;;;5083918;28;21069;-65
2023/07/16 05:45:03;;;;;;;12.27;4.67;;;19.40;77.70;;;;;;5097550;28;20537;-64
2023/07/16 05:47:31;;;;;;;9.23;4.10;;;19.70;77.90;;;;;;5096631;28;20544;-64
2023/07/16 05:49:58;;;;;;;10.63;4.23;;;19.90;70.00;;;;;;5096613;28;20453;-64
2023/07/16 05:52:25;;;;;;;11.43;3.83;;;20.20;70.30;;;;;;5096194;28;20452;-65
2023/07/16 05:54:52;;;;;;;8.80;3.87;;;20.20;63.90;;;;;;5096136;28;20459;-65
2023/07/16 05:57:18;;;;;;;15.40;4.53;;;20.40;66.50;;;;;;5096791;28;20883;-64
2023/07/16 05:59:45;;;;;;;8.97;3.40;;;20.40;65.40;;;;;;5096410;28;20540;-65
2023/07/16 06:02:12;;;;;;;13.63;4.20;;;20.70;62.50;;;;;;5096255;28;20480;-65
2023/07/16 06:04:40;;;;;;;13.70;4.40;;;20.60;62.40;;;;;;5095106;28;20809;-64
2023/07/16 06:07:07;;;;;;;9.33;4.00;;;20.90;61.30;;;;;;5096620;28;20541;-65
2023/07/16 06:09:34;;;;;;;9.10;5.00;;;20.90;55.00;;;;;;5096291;28;20462;-65
2023/07/16 06:12:01;;;;;;;8.37;3.97;;;21.10;54.20;;;;;;5095802;28;21194;-64
2023/07/16 06:14:28;;;;;;;9.70;3.50;;;21.40;54.50;;;;;;5095457;28;20457;-65
2023/07/16 06:16:55;;;;;;;11.00;4.30;;;21.40;54.50;;;;;;5096367;28;20445;-64
2023/07/16 06:19:22;;;;;;;9.53;4.23;;;21.50;54.50;;;;;;5096027;28;20446;-64
2023/07/16 06:21:50;;;;;;;10.10;4.93;;;21.50;52.00;;;;;;5095736;28;21048;-64
2023/07/16 06:24:18;;;;;;;10.70;4.80;;;21.50;45.80;;;;;;5095596;28;20836;-65
2023/07/16 06:26:46;;;;;;;9.03;4.20;;;21.60;45.90;;;;;;5096206;28;20454;-64
2023/07/16 06:29:13;;;;;;;9.30;4.43;;;21.50;45.80;;;;;;5095851;28;20450;-64
2023/07/16 06:31:43;;;;;;;8.00;4.10;;;21.70;46.00;;;;;;5096041;28;20450;-64
2023/07/16 06:34:09;;;;;;;9.67;4.50;;;21.70;41.40;;;;;;5095543;28;20450;-64
2023/07/16 06:36:36;;;;;;;11.73;4.90;;;21.60;45.80;;;;;;5096035;28;20491;-64
2023/07/16 06:39:05;;;;;;;15.93;5.70;;;21.70;41.00;;;;;;5095951;28;20450;-64
2023/07/16 06:41:32;;;;;;;10.80;4.43;;;21.60;36.80;;;;;;5095644;28;20454;-64
2023/07/16 06:43:59;;;;;;;12.73;4.93;;;21.70;36.90;;;;;;5094778;28;20478;-64
2023/07/16 06:46:25;;;;;;;8.00;4.70;;;21.80;37.00;;;;;;5095574;28;20466;-64
2023/07/16 06:48:52;;;;;;;11.70;4.50;;;21.80;37.00;;;;;;5095467;28;20460;-64
2023/07/16 06:51:19;;;;;;;12.07;4.77;;;21.90;37.10;;;;;;5095444;28;20492;-64
2023/07/16 06:53:47;;;;;;;11.90;5.80;;;22.20;37.30;;;;;;5094819;28;20507;-64
2023/07/16 06:56:15;;;;;;;12.43;4.70;;;22.40;37.50;;;;;;5095644;28;20450;-64
2023/07/16 06:58:42;;;;;;;13.27;5.60;;;22.20;32.70;;;;;;5095578;28;20453;-64
2023/07/16 07:01:09;;;;;;;13.80;4.07;;;22.30;32.10;;;;;;5095561;28;20462;-64
2023/07/16 07:03:36;;;;;;;10.40;4.63;;;22.20;37.30;;;;;;5094441;28;20988;-64
2023/07/16 07:06:03;;;;;;;10.23;4.47;;;22.60;30.90;;;;;;5095417;28;20449;-64
2023/07/16 07:08:30;;;;;;;9.43;5.07;;;22.60;28.90;;;;;;5095097;28;20961;-64
2023/07/16 07:10:57;;;;;;;11.63;5.00;;;22.60;28.90;;;;;;5095340;28;20449;-64
2023/07/16 07:13:25;;;;;;;15.30;5.30;;;22.60;28.90;;;;;;5094606;28;20805;-64
2023/07/16 07:15:52;;;;;;;13.50;4.60;;;22.70;30.50;;;;;;5094897;28;20458;-65
2023/07/16 07:18:19;;;;;;;13.13;5.40;;;22.80;29.00;;;;;;5094759;28;20460;-64
2023/07/16 07:20:48;;;;;;;9.03;4.53;;;22.80;29.00;;;;;;5095119;28;20454;-64
2023/07/16 07:23:16;;;;;;;12.17;5.63;;;22.80;28.20;;;;;;5092231;28;20489;-64
2023/07/16 07:25:43;;;;;;;12.37;4.80;;;22.80;29.10;;;;;;5095086;28;20460;-64
2023/07/16 07:28:10;;;;;;;12.57;5.60;;;22.70;24.60;;;;;;5094766;28;20454;-65
2023/07/16 07:30:38;;;;;;;13.53;4.90;;;22.60;23.90;;;;;;5094683;28;20454;-65
2023/07/16 07:33:05;;;;;;;12.23;5.27;;;22.70;23.60;;;;;;5093430;28;20450;-64
2023/07/16 07:35:32;;;;;;;11.63;5.20;;;22.70;21.60;;;;;;5094895;28;20460;-64
2023/07/16 07:37:58;;;;;;;8.73;4.50;;;22.90;21.80;;;;;;5094831;28;20446;-65
2023/07/16 07:40:26;;;;;;;14.57;5.17;;;22.90;21.80;;;;;;5094784;28;20461;-65
2023/07/16 07:42:53;;;;;;;8.93;4.07;;;22.80;21.70;;;;;;5092652;28;20466;-64
2023/07/16 07:45:20;;;;;;;12.17;4.97;;;22.80;21.70;;;;;;5095175;28;20941;-64
2023/07/16 07:47:48;;;;;;;10.67;4.27;;;22.70;21.60;;;;;;5094233;28;20461;-64
2023/07/16 07:50:15;;;;;;;13.90;4.87;;;22.70;21.60;;;;;;5094313;28;20972;-64
2023/07/16 07:52:42;;;;;;;13.97;4.97;;;22.40;21.40;;;;;;5092532;28;20540;-65
2023/07/16 07:55:09;;;;;;;9.47;3.97;;;22.80;21.70;;;;;;5094300;28;20459;-65
2023/07/16 07:57:36;;;;;;;10.80;4.60;;;23.00;19.60;;;;;;5094506;28;20454;-65
2023/07/16 08:00:04;;;;;;;12.00;4.47;;;22.90;18.20;;;;;;5094431;28;20820;-65
2023/07/16 08:02:31;;;;;;;12.23;5.00;;;23.20;16.40;;;;;;5093091;28;20960;-65
2023/07/16 08:04:59;;;;;;;16.27;4.70;;;23.50;14.80;;;;;;5094160;28;20460;-65
2023/07/16 08:07:26;;;;;;;11.63;4.43;;;23.30;14.60;;;;;;5094384;28;20820;-65
2023/07/16 08:09:53;;;;;;;11.20;3.90;;;23.60;14.80;;;;;;5094263;28;20454;-65
2023/07/16 08:12:20;;;;;;;9.83;4.20;;;23.90;15.00;;;;;;5093516;28;20470;-65
2023/07/16 08:14:48;;;;;;;12.87;4.57;;;23.50;14.70;;;;;;5093227;28;20533;-65
2023/07/16 08:17:15;;;;;;;10.33;4.40;;;23.50;14.70;;;;;;5094195;28;20532;-66
2023/07/16 08:19:42;;;;;;;13.63;5.10;;;23.80;15.00;;;;;;5094153;28;20450;-66
2023/07/16 08:22:11;;;;;;;12.40;5.10;;;24.10;15.10;;;;;;5093516;28;20453;-65
2023/07/16 08:24:38;;;;;;;12.80;5.30;;;24.40;15.40;;;;;;5093756;28;20473;-65
2023/07/16 08:27:05;;;;;;;9.57;4.17;;;24.80;10.00;;;;;;5093698;28;20453;-66
2023/07/16 08:29:32;;;;;;;9.80;4.43;;;24.40;8.00;;;;;;5093741;28;20460;-66
2023/07/16 08:31:59;;;;;;;11.73;4.53;;;24.70;8.60;;;;;;5093760;28;20450;-66
2023/07/16 08:34:27;;;;;;;11.00;4.60;;;24.20;7.60;;;;;;5093004;28;20457;-66
2023/07/16 08:36:54;;;;;;;12.90;4.33;;;24.10;7.50;;;;;;5093936;28;20507;-66
2023/07/16 08:39:22;;;;;;;8.50;4.10;;;24.30;7.60;;;;;;5093552;28;20466;-66
2023/07/16 08:41:49;;;;;;;9.07;4.00;;;24.00;7.40;;;;;;5093742;28;20533;-71
2023/07/16 08:44:16;;;;;;;10.53;3.97;;;24.20;8.80;;;;;;5078963;28;20486;-70
2023/07/16 08:46:43;;;;;;;11.73;4.70;;;23.90;7.30;;;;;;5073200;28;20952;-70
2023/07/16 08:49:12;;;;;;;10.20;3.27;;;23.60;7.10;;;;;;5073605;28;20508;-70
2023/07/16 08:51:40;;;;;;;8.27;3.40;;;23.50;7.10;;;;;;5073327;28;20461;-61
2023/07/16 08:54:07;;;;;;;8.67;3.83;;;24.00;8.10;;;;;;5072655;28;20457;-61
2023/07/16 08:56:36;;;;;;;9.87;4.17;;;24.10;7.50;;;;;;5073243;28;20935;-61
2023/07/16 08:59:03;;;;;;;11.63;4.43;;;24.70;8.00;;;;;;5073522;28;20809;-61
2023/07/16 09:01:30;;;;;;;11.37;4.50;;;25.00;4.60;;;;;;5073471;28;20451;-61
2023/07/16 09:03:57;;;;;;;12.03;4.40;;;25.50;2.60;;;;;;5072758;28;20479;-61
2023/07/16 09:06:24;;;;;;;10.53;4.07;;;25.60;1.00;;;;;;5073410;28;20457;-61
2023/07/16 09:08:51;;;;;;;8.20;3.77;;;25.20;1.00;;;;;;5073439;28;20943;-61
2023/07/16 09:11:21;;;;;;;10.67;3.70;;;25.60;3.20;;;;;;5073082;28;20457;-61
2023/07/16 09:13:49;;;;;;;11.30;4.17;;;25.10;1.00;;;;;;5072664;28;20443;-61
2023/07/16 09:16:19;;;;;;;10.50;3.70;;;25.50;1.00;;;;;;5073326;28;20451;-61
2023/07/16 09:18:46;;;;;;;9.70;3.93;;;25.70;1.00;;;;;;5073372;28;20465;-61
2023/07/16 09:21:13;;;;;;;8.60;3.93;;;26.20;1.00;;;;;;5073311;28;20461;-61
2023/07/16 09:23:41;;;;;;;9.07;4.20;;;26.40;1.00;;;;;;5072477;28;20480;-61
2023/07/16 09:26:08;;;;;;;9.53;4.13;;;26.90;1.00;;;;;;5073266;28;20451;-61
2023/07/16 09:28:35;;;;;;;11.93;3.90;;;26.50;1.00;;;;;;5073269;28;20458;-61
2023/07/16 09:31:07;;;;;;;9.57;4.40;;;26.90;1.00;;;;;;5072916;28;20451;-61
2023/07/16 09:33:35;;;;;;;8.23;3.70;;;26.20;1.00;;;;;;5072476;28;20453;-61
2023/07/16 09:36:03;;;;;;;8.13;3.30;;;25.90;1.00;;;;;;5073220;28;20812;-61
2023/07/16 09:38:30;;;;;;;14.50;4.00;;;25.80;1.00;;;;;;5072842;28;20461;-61
2023/07/16 09:40:58;;;;;;;10.70;4.03;;;25.40;1.00;;;;;;5076074;28;20455;-61
2023/07/16 09:43:24;;;;;;;10.70;4.23;;;25.50;1.00;;;;;;5076002;28;20481;-61
2023/07/16 09:45:51;;;;;;;10.10;4.10;;;25.00;1.00;;;;;;5076561;28;20468;-61
2023/07/16 09:48:20;;;;;;;9.60;3.80;;;25.00;1.00;;;;;;5076794;28;20439;-61
2023/07/16 09:50:52;;;;;;;9.93;3.53;;;26.00;1.00;;;;;;5076663;28;20823;-61
2023/07/16 09:53:21;;;;;;;9.87;4.00;;;27.00;1.30;;;;;;5075838;28;20855;-61
2023/07/16 09:55:48;;;;;;;7.33;3.53;;;27.50;1.00;;;;;;5076495;28;20454;-61
2023/07/16 09:58:19;;;;;;;7.10;3.30;;;28.00;1.00;;;;;;5076233;28;20465;-61
2023/07/16 10:00:48;;;;;;;8.93;3.67;;;27.90;1.00;;;;;;5077010;28;20498;-61
2023/07/16 10:03:16;;;;;;;7.90;3.80;;;28.20;1.00;;;;;;5075451;28;20454;-61
2023/07/16 10:05:44;;;;;;;13.07;4.83;;;28.30;1.00;;;;;;5076380;28;20855;-61
2023/07/16 10:08:18;;;;;;;11.30;4.23;;;28.10;1.00;;;;;;5076418;28;20450;-61
2023/07/16 10:10:48;;;;;;;9.10;3.90;;;26.90;1.00;;;;;;5076370;28;20436;-61
2023/07/16 10:13:16;;;;;;;9.47;3.50;;;26.40;1.00;;;;;;5075435;28;20461;-61
2023/07/16 10:15:53;;;;;;;8.07;3.33;;;26.40;1.00;;;;;;5076192;28;20540;-61
2023/07/16 10:18:31;;;;;;;7.67;3.60;;;25.60;1.00;;;;;;5075885;28;20967;-61
2023/07/16 10:21:07;;;;;;;7.13;3.23;;;25.10;1.00;;;;;;5075812;28;21003;-61
2023/07/16 10:23:41;;;;;;;10.93;3.87;;;25.10;1.00;;;;;;5075089;28;20450;-60
2023/07/16 10:26:09;;;;;;;7.83;3.30;;;25.90;1.00;;;;;;5075751;28;20458;-61
2023/07/16 10:28:36;;;;;;;10.20;3.70;;;25.60;1.00;;;;;;5075873;28;20493;-61
2023/07/16 10:31:04;;;;;;;8.53;3.63;;;26.10;1.00;;;;;;5075932;28;20553;-61
2023/07/16 10:33:31;;;;;;;10.20;4.47;;;26.50;1.00;;;;;;5074999;28;20461;-61
2023/07/16 10:35:59;;;;;;;8.03;3.40;;;27.20;1.00;;;;;;5075816;28;20461;-61
2023/07/16 10:38:27;;;;;;;8.07;3.80;;;27.10;1.00;;;;;;5075771;28;20450;-61
2023/07/16 10:40:54;;;;;;;6.90;2.90;;;26.90;1.00;;;;;;5075806;28;20451;-61
2023/07/16 10:43:21;;;;;;;10.47;3.40;;;26.40;1.00;;;;;;5074893;28;20950;-61
2023/07/16 10:45:51;;;;;;;8.17;3.03;;;25.90;1.00;;;;;;5075541;28;20451;-61
2023/07/16 10:48:18;;;;;;;8.77;3.67;;;26.20;1.00;;;;;;5076178;28;20439;-61
2023/07/16 10:50:44;;;;;;;7.20;3.33;;;26.10;1.00;;;;;;5075092;28;20450;-61
2023/07/16 10:53:13;;;;;;;11.20;3.73;;;25.80;1.00;;;;;;5074811;28;20535;-61
2023/07/16 10:55:45;;;;;;;7.97;3.27;;;26.20;1.00;;;;;;5075157;28;20451;-61
2023/07/16 10:58:12;;;;;;;7.77;3.57;;;27.10;1.00;;;;;;5075168;28;20903;-61
2023/07/16 11:00:40;;;;;;;11.00;4.50;;;27.80;1.00;;;;;;5075363;28;20534;-61
2023/07/16 11:03:08;;;;;;;9.63;3.57;;;27.70;1.00;;;;;;5074495;28;20832;-61
2023/07/16 11:05:35;;;;;;;9.40;3.50;;;27.80;1.00;;;;;;5075180;28;20572;-61
2023/07/16 11:08:02;;;;;;;9.80;3.60;;;27.90;1.00;;;;;;5075255;28;20824;-61
2023/07/16 11:10:30;;;;;;;9.30;3.47;;;27.40;1.00;;;;;;5074922;28;20460;-61
2023/07/16 11:13:00;;;;;;;6.90;3.13;;;28.00;1.00;;;;;;5074369;28;20457;-61
2023/07/16 11:15:34;;;;;;;7.57;3.77;;;29.00;1.00;;;;;;5075136;28;20466;-61
2023/07/16 11:18:02;;;;;;;8.60;3.47;;;29.30;1.00;;;;;;5074737;28;20455;-61
2023/07/16 11:20:30;;;;;;;8.50;3.67;;;28.80;1.00;;;;;;5074910;28;20457;-61
2023/07/16 11:22:59;;;;;;;7.37;2.90;;;28.60;1.00;;;;;;5074297;28;20452;-61
2023/07/16 11:25:26;;;;;;;8.33;3.57;;;28.50;1.00;;;;;;5074854;28;20483;-61
2023/07/16 11:27:56;;;;;;;8.03;3.57;;;28.50;1.00;;;;;;5074889;28;20457;-61
2023/07/16 11:30:25;;;;;;;7.70;3.20;;;28.80;1.00;;;;;;5075603;28;20451;-61
2023/07/16 11:32:53;;;;;;;10.47;3.50;;;27.90;1.00;;;;;;5073842;28;20448;-61
2023/07/16 11:35:20;;;;;;;7.10;3.23;;;27.00;1.00;;;;;;5074317;28;20448;-61
2023/07/16 11:37:48;;;;;;;7.53;3.13;;;26.00;1.00;;;;;;5074305;28;21070;-61
2023/07/16 11:40:17;;;;;;;8.30;3.10;;;26.00;1.00;;;;;;5074333;28;20525;-62
2023/07/16 11:42:44;;;;;;;8.30;3.20;;;25.90;1.00;;;;;;5073748;28;20974;-61
2023/07/16 11:45:17;;;;;;;9.67;3.10;;;27.00;1.00;;;;;;5073925;28;20481;-61
2023/07/16 11:47:46;;;;;;;8.93;3.27;;;26.90;1.00;;;;;;5074099;28;20524;-61
2023/07/16 11:50:13;;;;;;;7.70;3.00;;;26.80;1.00;;;;;;5074425;28;20455;-61
2023/07/16 11:52:40;;;;;;;9.73;3.17;;;27.90;1.00;;;;;;5073823;28;20452;-61
2023/07/16 11:55:08;;;;;;;7.30;3.00;;;28.20;1.00;;;;;;5074287;28;20514;-61
2023/07/16 11:57:35;;;;;;;7.60;3.57;;;28.00;1.00;;;;;;5074840;28;20542;-61
2023/07/16 12:00:03;;;;;;;9.23;3.50;;;27.70;1.00;;;;;;5074276;28;20536;-61
2023/07/16 12:02:30;;;;;;;7.60;3.50;;;26.90;1.00;;;;;;5073204;28;20452;-61
2023/07/16 12:04:58;;;;;;;13.13;3.87;;;26.50;1.00;;;;;;5073887;28;21020;-61
2023/07/16 12:07:36;;;;;;;9.90;3.73;;;26.10;1.00;;;;;;5074090;28;20817;-61
2023/07/16 12:10:04;;;;;;;7.67;3.53;;;25.50;1.00;;;;;;5074031;28;20450;-61
2023/07/16 12:12:30;;;;;;;7.63;3.73;;;26.10;1.00;;;;;;5073528;28;20454;-61
2023/07/16 12:14:57;;;;;;;8.17;3.70;;;26.50;1.00;;;;;;5073729;28;21016;-61
2023/07/16 12:17:24;;;;;;;7.93;3.40;;;26.60;1.00;;;;;;5074007;28;20192;-60
2023/07/16 12:19:51;;;;;;;7.83;3.40;;;26.50;1.00;;;;;;5073710;28;20457;-61
2023/07/16 12:22:20;;;;;;;13.30;3.20;;;26.90;1.00;;;;;;5073518;28;20457;-61
2023/07/16 12:24:47;;;;;;;7.53;3.20;;;26.80;1.00;;;;;;5073388;28;20481;-61
2023/07/16 12:27:15;;;;;;;8.50;2.90;;;26.40;1.00;;;;;;5073507;28;20450;-61
2023/07/16 12:29:42;;;;;;;12.27;3.80;;;26.90;1.00;;;;;;5073515;28;21064;-61
2023/07/16 12:32:09;;;;;;;7.03;3.63;;;27.20;1.00;;;;;;5073193;28;20939;-60
2023/07/16 12:34:36;;;;;;;9.27;4.00;;;27.40;1.00;;;;;;5073486;28;20444;-61
2023/07/16 12:37:04;;;;;;;6.93;3.10;;;27.60;1.00;;;;;;5073741;28;20453;-61
2023/07/16 12:39:32;;;;;;;8.50;3.60;;;27.30;1.00;;;;;;5073704;28;20451;-62